createdAt,value
2023-05-13T00:01:38.924Z,23.74
2023-05-13T00:04:07.497Z,23.73
2023-05-13T00:06:36.260Z,23.73
2023-05-13T00:09:05.921Z,23.73
2023-05-13T00:11:34.322Z,23.73
2023-05-13T00:14:02.952Z,23.73
2023-05-13T00:16:31.338Z,23.74
2023-05-13T00:19:01.181Z,23.74
2023-05-13T00:21:29.586Z,23.74
2023-05-13T00:23:57.991Z,23.73
2023-05-13T00:26:26.824Z,23.73
2023-05-13T00:28:55.570Z,23.73
2023-05-13T00:31:24.064Z,23.73
2023-05-13T00:33:52.613Z,23.73
2023-05-13T00:36:22.347Z,23.74
2023-05-13T00:38:50.958Z,23.74
2023-05-13T00:41:19.369Z,23.75
2023-05-13T00:43:47.725Z,23.73
2023-05-13T00:46:16.601Z,23.74
2023-05-13T00:48:45.028Z,23.73
2023-05-13T00:51:13.549Z,23.73
2023-05-13T00:53:43.252Z,23.73
2023-05-13T00:56:11.707Z,23.74
2023-05-13T00:58:40.108Z,23.73
2023-05-13T01:01:16.158Z,23.73
2023-05-13T01:03:53.754Z,23.73
2023-05-13T01:06:28.014Z,23.72
2023-05-13T01:09:03.612Z,23.72
2023-05-13T01:11:34.320Z,23.71
2023-05-13T01:14:14.613Z,23.72
2023-05-13T01:16:47.585Z,23.71
2023-05-13T01:19:27.642Z,23.70
2023-05-13T01:21:57.338Z,23.71
2023-05-13T01:24:26.002Z,23.71
2023-05-13T01:26:54.482Z,23.71
2023-05-13T01:29:23.037Z,23.70
2023-05-13T01:31:51.843Z,23.71
2023-05-13T01:34:20.610Z,23.70
2023-05-13T01:36:49.561Z,23.70
2023-05-13T01:39:19.312Z,23.70
2023-05-13T01:41:47.777Z,23.70
2023-05-13T01:44:16.693Z,23.71
2023-05-13T01:46:45.470Z,23.70
2023-05-13T01:49:13.926Z,23.70
2023-05-13T01:51:42.783Z,23.70
2023-05-13T01:54:11.171Z,23.70
2023-05-13T01:56:40.878Z,23.71
2023-05-13T01:59:11.245Z,23.71
2023-05-13T02:01:40.633Z,23.70
2023-05-13T02:04:09.338Z,23.71
2023-05-13T02:06:37.711Z,23.70
2023-05-13T02:09:06.139Z,23.70
2023-05-13T02:11:35.968Z,23.70
2023-05-13T02:14:05.729Z,23.70
2023-05-13T02:16:34.382Z,23.70
2023-05-13T02:19:02.827Z,23.69
2023-05-13T02:21:32.063Z,23.69
2023-05-13T02:24:00.637Z,23.68
2023-05-13T02:26:29.028Z,23.69
2023-05-13T02:28:57.729Z,23.69
2023-05-13T02:31:27.902Z,23.68
2023-05-13T02:33:56.286Z,23.67
2023-05-13T02:36:24.792Z,23.67
2023-05-13T02:38:53.086Z,23.67
2023-05-13T02:41:21.695Z,23.67
2023-05-13T02:43:50.045Z,23.67
2023-05-13T02:46:18.478Z,23.67
2023-05-13T02:48:48.660Z,23.67
2023-05-13T02:51:16.991Z,23.68
2023-05-13T02:53:45.522Z,23.68
2023-05-13T02:56:16.294Z,23.67
2023-05-13T02:58:44.832Z,23.65
2023-05-13T03:01:13.422Z,23.65
2023-05-13T03:03:41.932Z,23.66
2023-05-13T03:06:11.894Z,23.65
2023-05-13T03:08:40.244Z,23.66
2023-05-13T03:11:08.720Z,23.64
2023-05-13T03:13:37.179Z,23.65
2023-05-13T03:16:06.148Z,23.64
2023-05-13T03:18:36.230Z,23.64
2023-05-13T03:21:04.654Z,23.63
2023-05-13T03:23:35.198Z,23.64
2023-05-13T03:26:03.816Z,23.63
2023-05-13T03:28:32.511Z,23.62
2023-05-13T03:31:01.045Z,23.62
2023-05-13T03:33:30.001Z,23.62
2023-05-13T03:35:58.480Z,23.62
2023-05-13T03:38:26.857Z,23.62
2023-05-13T03:40:56.829Z,23.61
2023-05-13T03:43:25.140Z,23.62
2023-05-13T03:45:53.490Z,23.62
2023-05-13T03:48:22.016Z,23.61
2023-05-13T03:50:50.457Z,23.62
2023-05-13T03:53:19.279Z,23.61
2023-05-13T03:55:47.632Z,23.62
2023-05-13T03:58:17.415Z,23.62
2023-05-13T04:00:47.789Z,23.61
2023-05-13T04:03:17.351Z,23.61
2023-05-13T04:05:47.160Z,23.62
2023-05-13T04:08:15.530Z,23.62
2023-05-13T04:10:44.852Z,23.61
2023-05-13T04:13:13.203Z,23.61
2023-05-13T04:15:42.930Z,23.61
2023-05-13T04:18:11.387Z,23.62
2023-05-13T04:20:40.127Z,23.62
2023-05-13T04:23:08.768Z,23.61
2023-05-13T04:25:37.838Z,23.62
2023-05-13T04:28:07.241Z,23.62
2023-05-13T04:30:36.446Z,23.63
2023-05-13T04:33:06.782Z,23.63
2023-05-13T04:35:35.376Z,23.63
2023-05-13T04:38:03.834Z,23.62
2023-05-13T04:40:32.255Z,23.60
2023-05-13T04:43:00.898Z,23.61
2023-05-13T04:45:29.639Z,23.62
2023-05-13T04:47:58.569Z,23.62
2023-05-13T04:50:28.498Z,23.62
2023-05-13T04:52:57.626Z,23.62
2023-05-13T04:55:27.531Z,23.61
2023-05-13T04:57:56.313Z,23.62
2023-05-13T05:00:25.358Z,23.62
2023-05-13T05:02:53.850Z,23.62
2023-05-13T05:05:22.400Z,23.62
2023-05-13T05:07:52.340Z,23.60
2023-05-13T05:10:21.106Z,23.62
2023-05-13T05:12:49.967Z,23.60
2023-05-13T05:15:18.363Z,23.60
2023-05-13T05:17:46.864Z,23.61
2023-05-13T05:20:15.582Z,23.60
2023-05-13T05:22:43.998Z,23.61
2023-05-13T05:25:15.654Z,23.62
2023-05-13T05:27:44.310Z,23.61
2023-05-13T05:30:14.734Z,23.61
2023-05-13T05:32:43.277Z,23.63
2023-05-13T05:35:11.657Z,23.63
2023-05-13T05:37:40.195Z,23.64
2023-05-13T05:40:10.452Z,23.64
2023-05-13T05:42:40.302Z,23.63
2023-05-13T05:45:10.358Z,23.65
2023-05-13T05:47:38.876Z,23.65
2023-05-13T05:50:08.743Z,23.65
2023-05-13T05:52:37.167Z,23.67
2023-05-13T05:55:07.803Z,23.67
2023-05-13T05:57:36.173Z,23.68
2023-05-13T06:00:08.201Z,23.69
2023-05-13T06:02:36.572Z,23.68
2023-05-13T06:05:05.354Z,23.69
2023-05-13T06:07:33.956Z,23.69
2023-05-13T06:10:02.322Z,23.70
2023-05-13T06:12:30.923Z,23.69
2023-05-13T06:14:59.393Z,23.70
2023-05-13T06:17:29.370Z,23.71
2023-05-13T06:19:59.121Z,23.70
2023-05-13T06:22:27.626Z,23.70
2023-05-13T06:24:56.726Z,23.70
2023-05-13T06:27:25.888Z,23.71
2023-05-13T06:29:54.630Z,23.72
2023-05-13T06:32:23.021Z,23.72
2023-05-13T06:34:54.632Z,23.74
2023-05-13T06:37:24.470Z,23.74
2023-05-13T06:39:52.938Z,23.73
2023-05-13T06:42:21.321Z,23.76
2023-05-13T06:44:49.790Z,23.78
2023-05-13T06:47:18.291Z,23.79
2023-05-13T06:49:46.935Z,23.80
2023-05-13T06:52:16.686Z,23.81
2023-05-13T06:54:45.181Z,23.83
2023-05-13T06:57:13.489Z,23.86
2023-05-13T06:59:41.915Z,23.89
2023-05-13T07:02:11.402Z,23.87
2023-05-13T07:04:39.735Z,23.91
2023-05-13T07:07:08.320Z,23.91
2023-05-13T07:09:41.122Z,23.92
2023-05-13T07:12:11.023Z,23.93
2023-05-13T07:14:39.447Z,23.97
2023-05-13T07:17:08.023Z,23.96
2023-05-13T07:19:36.559Z,23.97
2023-05-13T07:22:05.128Z,23.97
2023-05-13T07:24:33.650Z,23.96
2023-05-13T07:27:04.010Z,24.00
2023-05-13T07:29:32.785Z,23.99
2023-05-13T07:32:05.795Z,23.96
2023-05-13T07:34:34.170Z,23.97
2023-05-13T07:37:04.203Z,24.02
2023-05-13T07:39:33.043Z,23.97
2023-05-13T07:42:02.889Z,24.02
2023-05-13T07:44:31.576Z,24.00
2023-05-13T07:47:00.107Z,24.04
2023-05-13T07:49:28.885Z,24.02
2023-05-13T07:51:57.301Z,24.01
2023-05-13T07:54:25.675Z,23.96
2023-05-13T07:56:54.167Z,23.98
2023-05-13T07:59:23.971Z,23.99
2023-05-13T08:01:52.773Z,23.96
2023-05-13T08:04:21.399Z,23.95
2023-05-13T08:06:49.915Z,23.98
2023-05-13T08:09:18.442Z,23.94
2023-05-13T08:11:47.169Z,23.95
2023-05-13T08:14:15.704Z,23.94
2023-05-13T08:16:45.577Z,23.88
2023-05-13T08:19:15.473Z,23.80
2023-05-13T08:21:44.106Z,23.78
2023-05-13T08:24:13.030Z,23.77
2023-05-13T08:26:41.419Z,23.74
2023-05-13T08:29:13.047Z,23.72
2023-05-13T08:31:42.001Z,23.66
2023-05-13T08:34:12.000Z,23.60
2023-05-13T08:36:40.355Z,23.55
2023-05-13T08:39:08.800Z,23.58
2023-05-13T08:41:37.134Z,23.58
2023-05-13T08:44:06.886Z,23.62
2023-05-13T08:46:35.955Z,23.62
2023-05-13T08:49:04.732Z,23.59
2023-05-13T08:51:34.496Z,23.60
2023-05-13T08:54:03.683Z,23.59
2023-05-13T08:56:32.527Z,23.59
2023-05-13T08:59:00.920Z,23.58
2023-05-13T09:01:29.318Z,23.60
2023-05-13T09:04:00.569Z,23.62
2023-05-13T09:06:29.735Z,23.68
2023-05-13T09:08:59.695Z,23.72
2023-05-13T09:11:28.300Z,23.74
2023-05-13T09:14:00.055Z,23.77
2023-05-13T09:16:29.981Z,23.78
2023-05-13T09:19:00.037Z,23.73
2023-05-13T09:21:30.293Z,23.78
2023-05-13T09:24:13.350Z,23.81
2023-05-13T09:26:42.495Z,23.81
2023-05-13T09:29:19.204Z,23.83
2023-05-13T09:31:49.128Z,23.84
2023-05-13T09:34:26.162Z,23.84
2023-05-13T09:37:00.704Z,23.86
2023-05-13T09:39:32.287Z,23.85
2023-05-13T09:42:04.899Z,23.86
2023-05-13T09:44:34.189Z,23.85
2023-05-13T09:47:03.716Z,23.85
2023-05-13T09:49:32.722Z,23.86
2023-05-13T09:52:01.469Z,23.86
2023-05-13T09:54:37.384Z,23.87
2023-05-13T09:57:06.585Z,23.86
2023-05-13T09:59:35.042Z,23.84
2023-05-13T10:02:05.506Z,23.86
2023-05-13T10:04:34.150Z,23.87
2023-05-13T10:07:04.279Z,23.87
2023-05-13T10:09:38.243Z,23.87
2023-05-13T10:12:08.688Z,23.88
2023-05-13T10:14:37.746Z,23.88
2023-05-13T10:17:07.055Z,23.89
2023-05-13T10:19:35.585Z,23.90
2023-05-13T10:22:07.292Z,23.91
2023-05-13T10:24:38.525Z,23.93
2023-05-13T10:27:09.090Z,23.90
2023-05-13T10:29:39.124Z,23.89
2023-05-13T10:32:09.360Z,23.90
2023-05-13T10:34:38.401Z,23.88
2023-05-13T10:37:46.825Z,23.85
2023-05-13T10:40:50.112Z,23.86
2023-05-13T10:43:23.397Z,23.84
2023-05-13T10:45:56.235Z,23.85
2023-05-13T10:48:24.864Z,23.85
2023-05-13T10:50:54.518Z,23.86
2023-05-13T10:53:25.275Z,23.89
2023-05-13T10:55:59.253Z,23.89
2023-05-13T10:58:32.999Z,23.86
2023-05-13T11:01:15.865Z,23.88
2023-05-13T11:03:52.562Z,23.87
2023-05-13T11:06:22.434Z,23.87
2023-05-13T11:08:53.595Z,23.86
2023-05-13T11:11:30.663Z,23.85
2023-05-13T11:14:17.044Z,23.89
2023-05-13T11:16:51.220Z,23.89
2023-05-13T11:19:24.947Z,23.91
2023-05-13T11:21:54.531Z,23.91
2023-05-13T11:24:23.152Z,23.93
2023-05-13T11:26:53.225Z,23.89
2023-05-13T11:29:33.524Z,23.94
2023-05-13T11:32:03.251Z,23.88
2023-05-13T11:34:31.702Z,23.85
2023-05-13T11:37:10.762Z,23.83
2023-05-13T11:39:41.355Z,23.81
2023-05-13T11:42:10.506Z,23.82
2023-05-13T11:44:46.808Z,23.80
2023-05-13T11:47:15.834Z,23.81
2023-05-13T11:49:45.105Z,23.84
2023-05-13T11:52:15.384Z,23.84
2023-05-13T11:54:46.522Z,23.85
2023-05-13T11:57:25.349Z,23.85
2023-05-13T11:59:58.237Z,23.86
2023-05-13T12:02:28.824Z,23.86
2023-05-13T12:04:57.436Z,23.85
2023-05-13T12:07:26.562Z,23.86
2023-05-13T12:09:57.495Z,23.87
2023-05-13T12:12:26.841Z,23.87
2023-05-13T12:14:57.003Z,23.86
2023-05-13T12:17:25.490Z,23.87
2023-05-13T12:20:08.179Z,23.87
2023-05-13T12:22:37.095Z,23.86
2023-05-13T12:25:43.415Z,23.86
2023-05-13T12:28:14.336Z,23.87
2023-05-13T12:30:45.371Z,23.87
2023-05-13T12:33:17.185Z,23.87
2023-05-13T12:35:45.742Z,23.88
2023-05-13T12:38:18.121Z,23.89
2023-05-13T12:40:47.408Z,23.88
2023-05-13T12:43:16.956Z,23.88
2023-05-13T12:45:48.237Z,23.88
2023-05-13T12:48:16.693Z,23.88
2023-05-13T12:50:45.231Z,23.89
2023-05-13T12:53:13.657Z,23.89
2023-05-13T12:55:42.142Z,23.89
2023-05-13T12:58:12.264Z,23.90
2023-05-13T13:00:40.722Z,23.89
2023-05-13T13:03:11.413Z,23.90
2023-05-13T13:05:39.907Z,23.89
2023-05-13T13:08:08.749Z,23.89
2023-05-13T13:10:37.124Z,23.90
2023-05-13T13:13:05.464Z,23.90
2023-05-13T13:15:33.976Z,23.90
2023-05-13T13:18:02.359Z,23.90
2023-05-13T13:20:32.254Z,23.91
2023-05-13T13:23:02.085Z,23.91
2023-05-13T13:25:30.442Z,23.88
2023-05-13T13:27:58.917Z,23.91
2023-05-13T13:30:27.523Z,23.88
2023-05-13T13:32:56.162Z,23.90
2023-05-13T13:35:24.716Z,23.90
2023-05-13T13:37:56.356Z,23.90
2023-05-13T13:40:25.080Z,23.90
2023-05-13T13:42:53.517Z,23.89
2023-05-13T13:45:24.228Z,23.90
2023-05-13T13:47:52.782Z,23.90
2023-05-13T13:50:21.839Z,23.90
2023-05-13T13:52:52.373Z,23.89
2023-05-13T13:55:22.438Z,23.89
2023-05-13T13:57:50.907Z,23.89
2023-05-13T14:00:19.582Z,23.89
2023-05-13T14:02:48.677Z,23.88
2023-05-13T14:05:17.765Z,23.88
2023-05-13T14:07:46.424Z,23.88
2023-05-13T14:10:15.189Z,23.88
2023-05-13T14:12:44.926Z,23.86
2023-05-13T14:15:14.024Z,23.85
2023-05-13T14:17:42.440Z,23.92
2023-05-13T14:20:12.258Z,23.91
2023-05-13T14:22:40.891Z,23.91
2023-05-13T14:25:10.407Z,23.91
2023-05-13T14:27:38.826Z,23.92
2023-05-13T14:30:10.450Z,23.92
2023-05-13T14:32:38.839Z,23.90
2023-05-13T14:35:08.668Z,23.91
2023-05-13T14:37:37.075Z,23.91
2023-05-13T14:40:07.109Z,23.90
2023-05-13T14:42:35.692Z,23.90
2023-05-13T14:45:04.121Z,23.89
2023-05-13T14:47:33.976Z,23.91
2023-05-13T14:50:02.404Z,23.91
2023-05-13T14:52:30.804Z,23.90
2023-05-13T14:54:59.205Z,23.90
2023-05-13T14:57:27.805Z,23.90
2023-05-13T14:59:57.576Z,23.90
2023-05-13T15:02:27.317Z,23.90
2023-05-13T15:04:57.249Z,23.90
2023-05-13T15:07:25.689Z,23.90
2023-05-13T15:09:54.219Z,23.89
2023-05-13T15:12:23.067Z,23.90
2023-05-13T15:14:54.038Z,23.90
2023-05-13T15:17:22.609Z,23.91
2023-05-13T15:19:51.051Z,23.90
2023-05-13T15:22:21.034Z,23.91
2023-05-13T15:24:49.430Z,23.90
2023-05-13T15:27:19.562Z,23.90
2023-05-13T15:29:48.049Z,23.89
2023-05-13T15:32:16.412Z,23.90
2023-05-13T15:34:45.334Z,23.90
2023-05-13T15:37:13.729Z,23.90
2023-05-13T15:39:44.353Z,23.90
2023-05-13T15:42:12.746Z,23.90
2023-05-13T15:44:41.165Z,23.91
2023-05-13T15:47:09.798Z,23.90
2023-05-13T15:49:38.272Z,23.90
2023-05-13T15:52:07.365Z,23.89
2023-05-13T15:54:35.929Z,23.89
2023-05-13T15:57:06.130Z,23.90
2023-05-13T15:59:34.532Z,23.89
2023-05-13T16:02:03.089Z,23.89
2023-05-13T16:04:32.486Z,23.90
2023-05-13T16:07:01.415Z,23.87
2023-05-13T16:09:30.097Z,23.90
2023-05-13T16:11:58.540Z,23.89
2023-05-13T16:14:29.650Z,23.92
2023-05-13T16:16:58.170Z,23.92
2023-05-13T16:19:26.614Z,23.92
2023-05-13T16:21:55.359Z,23.91
2023-05-13T16:24:23.685Z,23.89
2023-05-13T16:26:53.450Z,23.92
2023-05-13T16:29:21.873Z,23.93
2023-05-13T16:31:52.012Z,23.95
2023-05-13T16:34:20.568Z,23.92
2023-05-13T16:36:49.006Z,23.94
2023-05-13T16:39:17.429Z,23.93
2023-05-13T16:41:46.521Z,23.95
2023-05-13T16:44:14.942Z,23.95
2023-05-13T16:46:43.311Z,23.95
2023-05-13T16:49:13.258Z,23.96
2023-05-13T16:51:41.636Z,23.95
2023-05-13T16:54:10.099Z,23.95
2023-05-13T16:56:38.543Z,23.97
2023-05-13T16:59:06.886Z,23.98
2023-05-13T17:01:35.383Z,23.95
2023-05-13T17:04:03.844Z,23.97
2023-05-13T17:06:34.128Z,23.96
2023-05-13T17:09:02.446Z,23.96
2023-05-13T17:11:31.000Z,23.99
2023-05-13T17:13:59.417Z,24.00
2023-05-13T17:16:27.921Z,23.98
2023-05-13T17:18:58.967Z,23.97
2023-05-13T17:21:27.773Z,23.97
2023-05-13T17:23:57.665Z,23.96
2023-05-13T17:26:26.371Z,23.97
2023-05-13T17:28:54.808Z,23.97
2023-05-13T17:31:23.755Z,23.97
2023-05-13T17:33:52.174Z,23.96
2023-05-13T17:36:20.735Z,23.96
2023-05-13T17:38:49.552Z,24.00
2023-05-13T17:41:19.392Z,23.95
2023-05-13T17:43:47.979Z,23.92
2023-05-13T17:46:16.442Z,23.91
2023-05-13T17:48:45.173Z,23.92
2023-05-13T17:51:13.665Z,23.90
2023-05-13T17:53:41.993Z,23.87
2023-05-13T17:56:10.686Z,23.90
2023-05-13T17:58:40.623Z,23.91
2023-05-13T18:01:09.070Z,23.92
2023-05-13T18:03:37.456Z,23.90
2023-05-13T18:06:06.622Z,23.90
2023-05-13T18:08:36.398Z,23.89
2023-05-13T18:11:04.836Z,23.92
2023-05-13T18:13:33.410Z,23.95
2023-05-13T18:16:04.540Z,23.96
2023-05-13T18:18:33.113Z,23.94
2023-05-13T18:21:01.815Z,23.96
2023-05-13T18:23:30.299Z,23.97
2023-05-13T18:25:58.905Z,23.97
2023-05-13T18:28:27.549Z,23.97
2023-05-13T18:30:56.113Z,23.99
2023-05-13T18:33:26.209Z,23.96
2023-05-13T18:35:54.718Z,23.99
2023-05-13T18:38:23.807Z,23.97
2023-05-13T18:40:52.301Z,23.97
2023-05-13T18:43:20.908Z,24.01
2023-05-13T18:45:49.701Z,23.97
2023-05-13T18:48:18.163Z,23.95
2023-05-13T18:50:48.166Z,23.99
2023-05-13T18:53:16.609Z,23.97
2023-05-13T18:55:45.208Z,23.99
2023-05-13T18:58:13.583Z,23.96
2023-05-13T19:00:42.019Z,23.96
2023-05-13T19:03:10.659Z,23.94
2023-05-13T19:05:39.139Z,23.95
2023-05-13T19:08:09.136Z,23.96
2023-05-13T19:10:40.300Z,23.96
2023-05-13T19:13:09.468Z,23.94
2023-05-13T19:15:37.854Z,23.96
2023-05-13T19:18:06.325Z,23.95
2023-05-13T19:20:34.968Z,23.97
2023-05-13T19:23:03.409Z,23.97
2023-05-13T19:25:33.321Z,23.96
2023-05-13T19:28:02.686Z,23.96
2023-05-13T19:30:31.201Z,23.97
2023-05-13T19:32:59.921Z,23.98
2023-05-13T19:35:28.419Z,23.97
2023-05-13T19:37:57.465Z,23.97
2023-05-13T19:40:26.228Z,23.97
2023-05-13T19:42:56.697Z,23.97
2023-05-13T19:45:25.072Z,23.96
2023-05-13T19:47:53.762Z,23.97
2023-05-13T19:50:22.589Z,23.97
2023-05-13T19:52:51.320Z,23.96
2023-05-13T19:55:20.561Z,23.98
2023-05-13T19:57:48.973Z,23.98
2023-05-13T20:00:20.159Z,24.00
2023-05-13T20:02:48.787Z,23.98
2023-05-13T20:05:17.344Z,23.99
2023-05-13T20:07:45.909Z,24.01
2023-05-13T20:10:14.513Z,23.97
2023-05-13T20:12:43.076Z,24.00
2023-05-13T20:15:12.241Z,24.00
2023-05-13T20:17:42.129Z,24.00
2023-05-13T20:20:11.743Z,24.00
2023-05-13T20:22:40.090Z,24.00
2023-05-13T20:25:09.813Z,24.00
2023-05-13T20:27:38.202Z,24.01
2023-05-13T20:30:08.595Z,24.01
2023-05-13T20:32:37.170Z,23.99
2023-05-13T20:35:10.479Z,24.01
2023-05-13T20:37:39.328Z,24.00
2023-05-13T20:40:09.565Z,24.00
2023-05-13T20:42:37.910Z,24.00
2023-05-13T20:45:08.879Z,23.93
2023-05-13T20:47:37.705Z,23.93
2023-05-13T20:50:09.450Z,23.96
2023-05-13T20:52:37.815Z,23.96
2023-05-13T20:55:07.822Z,23.97
2023-05-13T20:57:36.232Z,23.99
2023-05-13T21:00:05.805Z,23.99
2023-05-13T21:02:34.376Z,23.99
2023-05-13T21:05:02.783Z,24.00
2023-05-13T21:07:32.611Z,24.00
2023-05-13T21:10:01.091Z,23.99
2023-05-13T21:12:29.580Z,23.99
2023-05-13T21:14:58.014Z,23.99
2023-05-13T21:17:26.629Z,23.98
2023-05-13T21:19:55.070Z,23.99
2023-05-13T21:22:23.595Z,23.98
2023-05-13T21:24:53.295Z,23.99
2023-05-13T21:27:21.831Z,23.99
2023-05-13T21:29:50.233Z,23.99
2023-05-13T21:32:18.927Z,23.99
2023-05-13T21:34:47.518Z,24.00
2023-05-13T21:37:16.897Z,23.99
2023-05-13T21:39:45.980Z,23.97
2023-05-13T21:42:15.693Z,23.98
2023-05-13T21:44:46.743Z,23.96
2023-05-13T21:47:15.165Z,23.97
2023-05-13T21:49:44.106Z,23.96
2023-05-13T21:52:12.608Z,23.97
2023-05-13T21:54:41.336Z,23.96
2023-05-13T21:57:10.109Z,23.95
2023-05-13T21:59:39.979Z,23.95
2023-05-13T22:02:09.613Z,23.96
2023-05-13T22:04:38.018Z,23.95
2023-05-13T22:07:06.845Z,23.95
2023-05-13T22:09:35.707Z,23.96
2023-05-13T22:12:04.343Z,23.95
2023-05-13T22:14:33.000Z,23.95
2023-05-13T22:17:09.777Z,23.95
2023-05-13T22:19:39.145Z,23.94
2023-05-13T22:22:07.620Z,23.95
2023-05-13T22:24:36.041Z,23.94
2023-05-13T22:27:04.606Z,23.93
2023-05-13T22:29:33.142Z,23.93
2023-05-13T22:32:03.299Z,23.93
2023-05-13T22:34:31.686Z,23.93
2023-05-13T22:37:00.043Z,23.92
2023-05-13T22:39:28.420Z,23.92
2023-05-13T22:41:56.792Z,23.93
2023-05-13T22:44:25.887Z,23.93
2023-05-13T22:46:54.702Z,23.93
2023-05-13T22:49:24.680Z,23.93
2023-05-13T22:51:53.205Z,23.93
2023-05-13T22:54:21.587Z,23.92
2023-05-13T22:56:50.094Z,23.92
2023-05-13T22:59:18.471Z,23.92
2023-05-13T23:01:46.885Z,23.92
2023-05-13T23:04:15.683Z,23.91
2023-05-13T23:06:45.459Z,23.96
2023-05-13T23:09:13.952Z,23.94
2023-05-13T23:11:42.354Z,23.94
2023-05-13T23:14:10.755Z,23.92
2023-05-13T23:16:39.330Z,23.91
2023-05-13T23:19:07.815Z,23.90
2023-05-13T23:21:37.386Z,23.91
2023-05-13T23:24:07.352Z,23.90
2023-05-13T23:26:35.806Z,23.91
2023-05-13T23:29:04.951Z,23.89
2023-05-13T23:31:33.621Z,23.88
2023-05-13T23:34:02.224Z,23.88
2023-05-13T23:36:31.143Z,23.87
2023-05-13T23:38:59.448Z,23.88
2023-05-13T23:41:29.408Z,23.88
2023-05-13T23:43:57.750Z,23.86
2023-05-13T23:46:26.769Z,23.87
2023-05-13T23:48:55.215Z,23.87
2023-05-13T23:51:23.602Z,23.86
2023-05-13T23:53:52.093Z,23.86
2023-05-13T23:56:21.494Z,23.85
2023-05-13T23:58:51.350Z,23.86
